FOOL

Libreville Leon M'ba International Airport

Libreville, Gabon
METAR FOOL 201230Z 28007KT 250V310 9999 BKN015 27/24 Q1010 NOSIG
Observed Flight Rules
Jan-20 @ 12:30 UTC (34 minutes ago) Marginal Visual Flight Rules
Wind Visibility Clouds
280° at 7 knots 10,000+ meters
  • Broken at 1,500' AGL
Temperatures Readings
Current 27°C / 81°F
Dewpoint 24°C / 75°F
Humidity 84%
Altimeter 29.82" Hg
Pressure 1010 hPa
Elevation 15
METAR FOOL 201230Z 28007KT 250V310 9999 BKN015 27/24 Q1010 NOSIG
Observed Flight Rules
Jan-20 @ 12:30 UTC
(34 minutes ago)
MVFR
Wind Visibility
280° at 7 knots 10,000+ meters
Clouds
  • Broken at 1,500' AGL
Temperature Dewpoint
27°C / 81°F 24°C / 75°F
Humidity Altimeter Pressure
84% 29.82" Hg 1010 hPa